Data for 12/11/2009

Time Sea-Level Adjusted Pressure Absolute Pressure Temperature Relative Humidity Dew Point   
(mb) (inHg) (mb) (inHg) (C) (F) (%) (C) (F)
00:05 1012 29.88 841 24.83 -9.4 15.1 52 -17.6 0.4
00:10 1012 29.88 841 24.83 -9.3 15.3 47 -18.6 -1.4
00:15 1012 29.88 841 24.83 -9.2 15.5 53 -17 1.4
00:20 1011 29.85 841 24.83 -9.3 15.2 57 -16.4 2.4
00:25 1011 29.85 841 24.83 -9.7 14.5 63 -15.6 3.9
00:30 1011 29.85 841 24.83 -9.8 14.5 62 -15.8 3.6
00:35 1011 29.85 841 24.83 -9.8 14.3 64 -15.4 4.2
00:40 1011 29.85 841 24.83 -10 14.1 65 -15.3 4.4
00:45 1011 29.85 841 24.83 -9.8 14.3 62 -15.8 3.6
00:50 1011 29.85 840 24.81 -9.7 14.6 57 -16.7 1.9
00:55 1011 29.85 840 24.81 -9.5 14.8 56 -16.8 1.7
01:00 1011 29.85 840 24.81 -9.5 15 51 -17.7 0.1
01:05 1011 29.85 840 24.81 -9.2 15.5 47 -18.5 -1.2
01:10 1011 29.85 840 24.81 -8.8 16.2 51 -17.3 0.9
01:15 1011 29.85 840 24.81 -8.8 16.2 52 -17 1.3
01:20 1011 29.85 840 24.81 -9 15.9 50 -17.5 0.5
01:25 1011 29.85 840 24.81 -9 15.8 52 -17.1 1.2
01:30 1011 29.85 840 24.81 -9.2 15.5 53 -17 1.3
01:35 1011 29.85 840 24.81 -9.2 15.4 49 -18.2 -0.7
01:40 1011 29.85 840 24.81 -8.9 16 51 -17.3 0.8
01:45 1011 29.85 840 24.81 -8.7 16.3 50 -17.4 0.7
01:50 1011 29.85 840 24.81 -8.7 16.3 46 -18.3 -0.9
01:55 1011 29.85 840 24.81 -8.6 16.5 48 -17.9 -0.2
02:00 1011 29.85 840 24.81 -8.5 16.8 45 -18.5 -1.3
02:05 1011 29.85 840 24.81 -8.5 16.8 47 -17.8 -0.1
02:10 1011 29.85 840 24.81 -8.4 17 50 -17.1 1.1
02:15 1011 29.85 840 24.81 -8.4 16.8 47 -17.9 -0.2
02:20 1011 29.85 840 24.81 -8.4 16.8 48 -17.6 0.3
02:25 1011 29.85 840 24.81 -8.4 16.9 55 -15.9 3.3
02:30 1011 29.85 840 24.81 -9.1 15.6 59 -15.6 3.8
02:35 1011 29.85 840 24.81 -9.2 15.4 50 -17.7 0.1
02:40 1011 29.85 840 24.81 -9 15.9 52 -17.2 1
02:45 1011 29.85 840 24.81 -8.8 16.1 49 -17.7 0.1
02:50 1011 29.85 840 24.81 -8.7 16.3 54 -16.4 2.4
02:55 1011 29.85 840 24.81 -8.9 15.9 55 -16.4 2.4
03:00 1011 29.85 840 24.81 -9 15.9 53 -16.9 1.6
03:05 1011 29.85 840 24.81 -9.1 15.6 55 -16.7 2
03:10 1011 29.85 840 24.81 -9 15.8 53 -16.9 1.6
03:15 1011 29.85 840 24.81 -8.7 16.4 48 -17.8 -0
03:20 1011 29.85 840 24.81 -8.6 16.6 52 -16.7 1.9
03:25 1011 29.85 840 24.81 -8.8 16.1 55 -16.2 2.8
03:30 1011 29.85 840 24.81 -9.1 15.6 57 -16.2 2.8
03:35 1011 29.85 840 24.81 -9 15.8 52 -17.2 1
03:40 1011 29.85 840 24.81 -8.9 16 53 -16.8 1.7
03:45 1011 29.85 840 24.81 -8.8 16.1 51 -17.3 0.8
03:50 1011 29.85 840 24.81 -8.6 16.6 48 -17.7 0.1
03:55 1011 29.85 840 24.81 -8.4 17 47 -17.8 -0.1
04:00 1011 29.85 840 24.81 -8.3 17.1 47 -17.8 -0
04:05 1011 29.85 840 24.81 -8.3 17 47 -17.8 -0
04:10 1011 29.85 840 24.81 -8.4 16.8 49 -17.4 0.7
04:15 1011 29.85 840 24.81 -8.6 16.6 48 -17.7 0.2
04:20 1011 29.85 840 24.81 -8.4 16.8 48 -17.6 0.4
04:25 1011 29.85 840 24.81 -8.6 16.6 49 -17.5 0.5
04:30 1011 29.85 840 24.81 -8.6 16.5 49 -17.5 0.4
04:35 1011 29.85 840 24.81 -8.8 16.3 49 -17.6 0.4
04:40 1011 29.85 840 24.81 -8.8 16.2 50 -17.5 0.5
04:45 1011 29.85 840 24.81 -8.9 16.1 51 -17.3 0.9
04:50 1011 29.85 840 24.81 -8.9 16 51 -17.3 0.8
04:55 1011 29.85 840 24.81 -9 15.8 51 -17.3 0.9
05:00 1011 29.85 840 24.81 -9 15.9 52 -17.1 1.3
05:05 1011 29.85 840 24.81 -9.2 15.5 54 -16.8 1.8
05:10 1011 29.85 840 24.81 -9.9 14.1 60 -16.3 2.6
05:15 1011 29.85 840 24.81 -9.9 14.2 58 -16.7 2
05:20 1011 29.85 840 24.81 -9.9 14.3 59 -16.4 2.4
05:25 1011 29.85 840 24.81 -9.8 14.3 56 -17.1 1.2
05:30 1011 29.85 840 24.81 -9.7 14.5 56 -16.9 1.6
05:35 1011 29.85 840 24.81 -9.4 15 54 -17.1 1.2
05:40 1011 29.85 840 24.81 -9.4 15.1 53 -17.2 1
05:45 1011 29.85 840 24.81 -9.5 14.9 55 -17 1.5
05:50 1011 29.85 840 24.81 -9.5 14.9 53 -17.3 0.8
05:55 1011 29.85 840 24.81 -9.4 15.1 54 -17.1 1.3
06:00 1011 29.85 840 24.81 -9.4 15.1 57 -16.5 2.3
06:05 1011 29.85 840 24.81 -9.4 15.1 58 -16.1 3
06:10 1010 29.83 840 24.81 -9.5 15 58 -16.2 2.8
06:15 1010 29.83 840 24.81 -9.1 15.7 57 -16 3.1
06:20 1010 29.83 840 24.81 -9.2 15.4 62 -15.3 4.4
06:25 1010 29.83 840 24.81 -9.4 15.1 59 -16 3.1
06:30 1010 29.83 840 24.81 -9.5 15 56 -16.7 1.9
06:35 1010 29.83 840 24.81 -9.6 14.8 56 -16.9 1.7
06:40 1010 29.83 840 24.81 -9.8 14.4 57 -16.9 1.6
06:45 1010 29.83 840 24.81 -9.8 14.4 54 -17.3 0.8
06:50 1011 29.85 840 24.81 -9.7 14.6 57 -16.6 2
06:55 1011 29.85 840 24.81 -9.6 14.8 52 -17.6 0.3
07:00 1011 29.85 840 24.81 -9.3 15.3 51 -17.7 0.2
07:05 1011 29.85 840 24.81 -9.3 15.3 54 -16.9 1.6
07:10 1011 29.85 840 24.81 -9.4 15.1 53 -17.2 1
07:15 1010 29.83 840 24.81 -9.2 15.4 55 -16.6 2.1
07:20 1010 29.83 840 24.81 -9.4 15.2 56 -16.5 2.3
07:25 1010 29.83 839 24.78 -9.8 14.4 58 -16.6 2.1
07:30 1010 29.83 840 24.81 -10 14 57 -17 1.4
07:35 1010 29.83 840 24.81 -9.8 14.4 59 -16.5 2.4
07:40 1010 29.83 840 24.81 -10 14 63 -15.9 3.4
07:45 1010 29.83 839 24.78 -10.2 13.6 64 -15.7 3.7
07:50 1010 29.83 839 24.78 -10.3 13.5 62 -16.2 2.8
07:55 1010 29.83 839 24.78 -10.3 13.6 63 -16.1 3
08:00 1010 29.83 839 24.78 -10.1 13.8 61 -16.2 2.8
08:05 1010 29.83 839 24.78 -9.9 14.2 60 -16.3 2.7
08:10 1010 29.83 839 24.78 -9.3 15.3 58 -16.2 2.9
08:15 1010 29.83 839 24.78 -9 15.8 56 -16.2 2.9
08:20 1010 29.83 839 24.78 -8.8 16.2 53 -16.6 2
08:25 1010 29.83 839 24.78 -8.4 16.9 52 -16.7 2
08:30 1010 29.83 839 24.78 -8.2 17.3 53 -16.2 2.8
08:35 1010 29.83 839 24.78 -8.1 17.4 50 -16.8 1.7
08:40 1010 29.83 839 24.78 -8.1 17.4 51 -16.7 2
08:45 1010 29.83 839 24.78 -8.2 17.3 52 -16.5 2.3
08:50 1010 29.83 839 24.78 -8.2 17.2 54 -15.9 3.4
08:55 1010 29.83 839 24.78 -8.3 17.1 55 -15.8 3.5
09:00 1010 29.83 839 24.78 -8.3 17.2 56 -15.6 3.9
09:05 1010 29.83 839 24.78 -8.1 17.4 56 -15.3 4.4
09:10 1010 29.83 839 24.78 -8 17.7 56 -15.3 4.4
09:15 1010 29.83 840 24.81 -7.7 18.1 57 -14.9 5.2
09:20 1010 29.83 840 24.81 -7.8 18 58 -14.6 5.8
09:25 1010 29.83 840 24.81 -7.7 18.1 57 -14.8 5.4
09:30 1010 29.83 840 24.81 -7.7 18.1 58 -14.6 5.6
09:35 1011 29.85 840 24.81 -7.5 18.5 56 -14.7 5.5
09:40 1011 29.85 840 24.81 -7.4 18.7 56 -14.6 5.6
09:45 1011 29.85 840 24.81 -7.3 18.9 55 -14.9 5.3
09:50 1011 29.85 840 24.81 -7.3 18.9 55 -14.8 5.4
09:55 1011 29.85 840 24.81 -7.1 19.3 55 -14.6 5.7
10:00 1011 29.85 840 24.81 -6.9 19.5 54 -14.8 5.4
10:05 1011 29.85 840 24.81 -6.9 19.7 53 -14.9 5.2
10:10 1011 29.85 840 24.81 -6.7 19.9 53 -14.7 5.5
10:15 1011 29.85 840 24.81 -6.6 20.2 53 -14.7 5.5
10:20 1011 29.85 840 24.81 -6.5 20.2 50 -15.4 4.3
10:25 1011 29.85 840 24.81 -6.4 20.4 47 -16 3.1
10:30 1011 29.85 840 24.81 -6.5 20.3 47 -15.9 3.3
10:35 1011 29.85 840 24.81 -6.5 20.4 47 -15.9 3.4
10:40 1011 29.85 840 24.81 -6.3 20.6 47 -16 3.2
10:45 1011 29.85 840 24.81 -6.4 20.5 47 -16 3.3
10:50 1011 29.85 840 24.81 -6.2 20.9 45 -16.4 2.5
10:55 1011 29.85 840 24.81 -6.3 20.7 46 -16.2 2.9
11:00 1011 29.85 840 24.81 -6.1 21 47 -15.7 3.8
11:05 1011 29.85 840 24.81 -6 21.3 46 -15.9 3.4
11:10 1010 29.83 840 24.81 -6.1 21 47 -15.7 3.8
11:15 1010 29.83 840 24.81 -6.4 20.5 47 -16 3.3
11:20 1010 29.83 840 24.81 -6.5 20.3 46 -16.2 2.8
11:25 1010 29.83 839 24.78 -6.5 20.4 45 -16.5 2.4
11:30 1010 29.83 839 24.78 -6.4 20.4 48 -15.9 3.5
11:35 1010 29.83 839 24.78 -6.1 20.9 45 -16.2 2.9
11:40 1010 29.83 839 24.78 -5.9 21.4 44 -16.4 2.5
11:45 1010 29.83 839 24.78 -5.6 21.9 45 -15.8 3.6
11:50 1010 29.83 839 24.78 -5.2 22.6 43 -16 3.3
11:55 1010 29.83 839 24.78 -5.6 22 45 -15.7 3.7
12:00 1010 29.83 839 24.78 -5.8 21.5 45 -15.9 3.4
12:05 1010 29.83 839 24.78 -5.5 22.2 43 -16.1 3
12:10 1010 29.83 839 24.78 -5.6 21.9 44 -16.1 3.1
12:15 1010 29.83 839 24.78 -5.5 22.1 46 -15.4 4.3
12:20 1010 29.83 839 24.78 -5.3 22.4 43 -15.9 3.3
12:25 1010 29.83 839 24.78 -5.7 21.8 45 -15.9 3.4
12:30 1009 29.8 839 24.78 -5.5 22.2 46 -15.3 4.5
12:35 1009 29.8 839 24.78 -5.2 22.6 46 -15.1 4.8
12:40 1009 29.8 839 24.78 -5.2 22.6 46 -15.3 4.5
12:45 1009 29.8 838 24.75 -5.1 22.8 47 -14.8 5.4
12:50 1009 29.8 838 24.75 -5.5 22.1 47 -15.2 4.7
12:55 1009 29.8 838 24.75 -5.5 22.1 48 -14.8 5.3
13:00 1009 29.8 838 24.75 -4.9 23.1 45 -15.2 4.7
13:05 1009 29.8 838 24.75 -4.9 23.1 45 -15 5
13:10 1009 29.8 838 24.75 -4.9 23.2 43 -15.8 3.6
13:15 1009 29.8 838 24.75 -4.7 23.5 44 -15.3 4.5
13:20 1009 29.8 838 24.75 -4.5 23.9 45 -14.8 5.4
13:25 1009 29.8 838 24.75 -4.2 24.5 43 -15.1 4.7
13:30 1009 29.8 838 24.75 -4.3 24.3 45 -14.5 5.8
13:35 1009 29.8 838 24.75 -4 24.8 42 -15.1 4.9
13:40 1009 29.8 838 24.75 -4 24.7 44 -14.6 5.7
13:45 1009 29.8 838 24.75 -4 24.7 45 -14.3 6.2
13:50 1009 29.8 838 24.75 -3.9 25 42 -15.1 4.9
13:55 1009 29.8 838 24.75 -3.7 25.3 44 -14.4 6.1
14:00 1009 29.8 838 24.75 -3.4 25.8 43 -14.2 6.4
14:05 1008 29.77 838 24.75 -3.3 26.1 43 -14.1 6.6
14:10 1008 29.77 837 24.72 -3.6 25.5 45 -14 6.8
14:15 1008 29.77 837 24.72 -3.6 25.6 44 -14.2 6.4
14:20 1008 29.77 837 24.72 -3.2 26.2 42 -14.4 6
14:25 1008 29.77 837 24.72 -3.6 25.6 42 -14.8 5.4
14:30 1008 29.77 837 24.72 -3.6 25.4 42 -14.8 5.4
14:35 1008 29.77 837 24.72 -4.1 24.6 45 -14.4 6.2
14:40 1008 29.77 837 24.72 -4.4 24 45 -14.7 5.5
14:45 1008 29.77 837 24.72 -4.5 24 44 -15.1 4.8
14:50 1008 29.77 837 24.72 -4.4 24 43 -15.1 4.8
14:55 1008 29.77 837 24.72 -4.9 23.2 44 -15.4 4.4
15:00 1008 29.77 837 24.72 -5 23.1 43 -15.8 3.5
15:05 1008 29.77 837 24.72 -4.7 23.6 43 -15.4 4.3
15:10 1008 29.77 837 24.72 -4.4 24.1 45 -14.6 5.8
15:15 1008 29.77 837 24.72 -4.3 24.2 44 -14.9 5.2
15:20 1008 29.77 837 24.72 -4.3 24.3 44 -14.9 5.1
15:25 1008 29.77 837 24.72 -4.2 24.4 42 -15.4 4.3
15:30 1008 29.77 837 24.72 -4.2 24.5 44 -14.6 5.7
15:35 1008 29.77 837 24.72 -4.5 24 45 -14.6 5.8
15:40 1008 29.77 837 24.72 -4.6 23.7 43 -15.4 4.3
15:45 1008 29.77 837 24.72 -4.8 23.3 46 -14.9 5.2
15:50 1008 29.77 837 24.72 -4.8 23.3 47 -14.6 5.7
15:55 1008 29.77 837 24.72 -4.8 23.3 47 -14.5 5.9
16:00 1008 29.77 837 24.72 -5 23 48 -14.3 6.3
16:05 1008 29.77 837 24.72 -5.1 22.9 49 -14.2 6.5
16:10 1008 29.77 837 24.72 -5.2 22.6 50 -14 6.7
16:15 1008 29.77 837 24.72 -5.1 22.8 48 -14.5 5.9
16:20 1007 29.74 837 24.72 -5.2 22.6 48 -14.5 5.9
16:25 1007 29.74 837 24.72 -5.3 22.5 47 -14.8 5.3
16:30 1007 29.74 837 24.72 -5.3 22.4 49 -14.6 5.8
16:35 1007 29.74 837 24.72 -5.7 21.8 50 -14.5 5.8
16:40 1007 29.74 837 24.72 -5.9 21.4 51 -14.4 6
16:45 1007 29.74 837 24.72 -5.9 21.3 51 -14.4 6.1
16:50 1007 29.74 837 24.72 -6.1 21 51 -14.6 5.8
16:55 1007 29.74 836 24.69 -6.1 21 51 -14.7 5.5
17:00 1007 29.74 836 24.69 -6 21.3 51 -14.6 5.7
17:05 1007 29.74 836 24.69 -5.9 21.3 52 -14.2 6.4
17:10 1007 29.74 836 24.69 -6.2 20.8 52 -14.5 6
17:15 1007 29.74 836 24.69 -6.2 20.9 52 -14.4 6
17:20 1007 29.74 836 24.69 -5.9 21.4 54 -13.8 7.2
17:25 1007 29.74 836 24.69 -5.9 21.5 55 -13.4 7.9
17:30 1007 29.74 836 24.69 -5.8 21.5 54 -13.7 7.3
17:35 1007 29.74 836 24.69 -6.1 21.1 54 -13.9 7
17:40 1007 29.74 836 24.69 -6.1 21 56 -13.6 7.5
17:45 1007 29.74 836 24.69 -6.4 20.5 56 -13.8 7.2
17:50 1007 29.74 836 24.69 -6.5 20.4 55 -14 6.8
17:55 1007 29.74 836 24.69 -6.2 20.8 56 -13.6 7.5
18:00 1007 29.74 836 24.69 -5.8 21.5 59 -12.6 9.2
18:05 1007 29.74 836 24.69 -5.6 21.9 57 -12.9 8.7
18:10 1007 29.74 836 24.69 -6.1 21.1 61 -12.3 9.8
18:15 1007 29.74 836 24.69 -6.3 20.7 63 -12.2 10.1
18:20 1007 29.74 836 24.69 -6.3 20.7 63 -12.3 9.9
18:25 1007 29.74 836 24.69 -6.3 20.7 63 -12.2 10
18:30 1007 29.74 836 24.69 -6.5 20.3 67 -11.8 10.8
18:35 1007 29.74 836 24.69 -6.9 19.6 67 -12.1 10.2
18:40 1007 29.74 836 24.69 -7.1 19.2 65 -12.6 9.3
18:45 1007 29.74 836 24.69 -7.1 19.3 63 -12.9 8.8
18:50 1007 29.74 836 24.69 -6.4 20.4 60 -12.9 8.7
18:55 1007 29.74 836 24.69 -6.5 20.4 63 -12.4 9.6
19:00 1007 29.74 836 24.69 -6.5 20.3 60 -13.1 8.5
19:05 1007 29.74 836 24.69 -6.1 21.1 59 -12.9 8.8
19:10 1007 29.74 836 24.69 -6.2 20.8 61 -12.6 9.3
19:15 1007 29.74 836 24.69 -6.4 20.4 61 -12.9 8.9
19:20 1007 29.74 836 24.69 -6.2 20.8 61 -12.5 9.5
19:25 1007 29.74 836 24.69 -6.5 20.3 63 -12.5 9.5
19:30 1007 29.74 836 24.69 -6.9 19.6 63 -12.7 9.1
19:35 1007 29.74 836 24.69 -7.1 19.3 63 -13 8.5
19:40 1007 29.74 836 24.69 -7 19.3 62 -13.1 8.4
19:45 1007 29.74 836 24.69 -7 19.5 59 -13.6 7.5
19:50 1007 29.74 836 24.69 -6.8 19.8 59 -13.6 7.5
19:55 1007 29.74 836 24.69 -6.2 20.8 55 -13.8 7.1
20:00 1007 29.74 836 24.69 -6.2 20.8 59 -13 8.6
20:05 1007 29.74 836 24.69 -6.4 20.6 56 -13.7 7.4
20:10 1007 29.74 836 24.69 -6.3 20.6 55 -13.9 7
20:15 1007 29.74 836 24.69 -6.4 20.4 57 -13.6 7.4
20:20 1007 29.74 836 24.69 -6 21.3 54 -13.8 7.2
20:25 1007 29.74 836 24.69 -6.3 20.7 60 -12.8 9
20:30 1007 29.74 836 24.69 -6.4 20.5 53 -14.4 6.2
20:35 1007 29.74 836 24.69 -5.8 21.6 57 -13.1 8.4
20:40 1007 29.74 836 24.69 -6.7 19.9 60 -13.1 8.3
20:45 1007 29.74 836 24.69 -6.6 20.1 56 -14 6.8
20:50 1007 29.74 836 24.69 -6.6 20.1 56 -14 6.8
20:55 1007 29.74 836 24.69 -6.8 19.7 63 -12.8 9
21:00 1006 29.71 836 24.69 -7.2 19 62 -13.3 8.1
21:05 1006 29.71 836 24.69 -7.4 18.8 60 -13.8 7.2
21:10 1006 29.71 836 24.69 -7.1 19.2 63 -13.1 8.4
21:15 1006 29.71 836 24.69 -6.9 19.5 56 -14.4 6.1
21:20 1006 29.71 836 24.69 -6.5 20.2 57 -13.7 7.3
21:25 1006 29.71 836 24.69 -7.1 19.3 59 -13.8 7.1
21:30 1006 29.71 836 24.69 -7 19.4 60 -13.5 7.7
21:35 1006 29.71 836 24.69 -7 19.4 60 -13.5 7.6
21:40 1006 29.71 835 24.66 -7.1 19.3 57 -14.2 6.5
21:45 1006 29.71 835 24.66 -6.6 20.1 59 -13.3 8
21:50 1006 29.71 835 24.66 -7.2 19 60 -13.6 7.4
21:55 1006 29.71 835 24.66 -7.2 19 61 -13.6 7.6
22:00 1006 29.71 835 24.66 -6.7 19.9 60 -13.3 8
22:05 1006 29.71 835 24.66 -6.3 20.6 57 -13.4 7.8
22:10 1006 29.71 835 24.66 -6.1 21.1 58 -13.1 8.4
22:15 1006 29.71 835 24.66 -6.2 20.9 58 -13.1 8.3
22:20 1006 29.71 835 24.66 -6.1 20.9 58 -13 8.5
22:25 1006 29.71 835 24.66 -6.3 20.7 58 -13.3 8
22:30 1006 29.71 835 24.66 -5.9 21.3 56 -13.3 8
22:35 1006 29.71 835 24.66 -5.3 22.5 52 -13.6 7.5
22:40 1006 29.71 835 24.66 -4.9 23.1 55 -12.6 9.4
22:45 1006 29.71 835 24.66 -4.6 23.7 59 -11.5 11.3
22:50 1006 29.71 835 24.66 -4.5 23.9 59 -11.4 11.5
22:55 1006 29.71 835 24.66 -4.9 23.2 59 -11.8 10.8
23:00 1006 29.71 835 24.66 -5.7 21.7 65 -11.4 11.6
23:05 1006 29.71 835 24.66 -6.3 20.7 65 -11.9 10.6
23:10 1006 29.71 835 24.66 -6.1 21.1 61 -12.5 9.6
23:15 1006 29.71 835 24.66 -6.1 21.1 60 -12.5 9.4
23:20 1006 29.71 835 24.66 -6 21.3 66 -11.3 11.6
23:25 1006 29.71 835 24.66 -5.9 21.5 62 -12 10.4
23:30 1006 29.71 835 24.66 -5.6 21.8 59 -12.4 9.8
23:35 1006 29.71 835 24.66 -5.7 21.7 59 -12.4 9.6
23:40 1006 29.71 835 24.66 -5.5 22.1 61 -12 10.5
23:45 1006 29.71 835 24.66 -5.5 22.2 59 -12.2 10
23:50 1006 29.71 835 24.66 -5.7 21.7 60 -12.2 10
23:55 1006 29.71 835 24.66 -6 21.2 59 -12.7 9.2
24:00 1006 29.71 835 24.66 -6 21.1 58 -13 8.6